createdAt,value
2023-04-21T00:04:04.152Z,12.80
2023-04-21T00:09:11.259Z,13.18
2023-04-21T00:14:16.263Z,12.23
2023-04-21T00:19:24.004Z,13.18
2023-04-21T00:24:42.992Z,11.98
2023-04-21T00:29:48.066Z,13.73
2023-04-21T00:34:51.454Z,16.27
2023-04-21T00:39:58.852Z,14.80
2023-04-21T00:45:05.695Z,12.60
2023-04-21T00:50:11.260Z,17.87
2023-04-21T00:55:16.272Z,17.30
2023-04-21T01:00:21.723Z,17.33
2023-04-21T01:05:25.391Z,16.63
2023-04-21T01:10:33.649Z,14.07
2023-04-21T01:15:38.411Z,14.93
2023-04-21T01:20:42.163Z,10.87
2023-04-21T01:25:47.388Z,12.17
2023-04-21T01:30:51.305Z,9.57
2023-04-21T01:35:57.083Z,7.40
2023-04-21T01:41:01.852Z,9.30
2023-04-21T01:46:05.815Z,5.33
2023-04-21T01:51:09.419Z,6.30
2023-04-21T01:56:17.299Z,8.20
2023-04-21T02:01:21.786Z,9.00
2023-04-21T02:06:27.679Z,8.43
2023-04-21T02:11:32.647Z,13.43
2023-04-21T02:16:35.961Z,16.17
2023-04-21T02:21:40.357Z,38.20
2023-04-21T02:26:47.155Z,8.50
2023-04-21T02:31:59.325Z,36.30
2023-04-21T02:37:07.048Z,127.67
2023-04-21T02:42:12.974Z,222.00
2023-04-21T02:47:18.411Z,308.60
2023-04-21T02:52:22.011Z,113.83
2023-04-21T02:57:34.474Z,63.40
2023-04-21T03:02:39.898Z,18.20
2023-04-21T03:07:50.432Z,121.43
2023-04-21T03:12:58.454Z,47.23
2023-04-21T03:18:02.018Z,47.93
2023-04-21T03:23:08.469Z,162.73
2023-04-21T03:28:13.815Z,52.57
2023-04-21T03:33:17.182Z,42.80
2023-04-21T03:38:22.172Z,254.77
2023-04-21T03:43:27.289Z,92.03
2023-04-21T03:48:32.068Z,20.77
2023-04-21T03:53:41.222Z,19.27
2023-04-21T03:58:49.699Z,101.07
2023-04-21T04:04:05.725Z,54.80
2023-04-21T04:09:10.090Z,85.50
2023-04-21T04:14:17.238Z,39.67
2023-04-21T04:19:20.765Z,197.67
2023-04-21T04:24:26.928Z,175.70
2023-04-21T04:29:31.995Z,314.53
2023-04-21T04:34:37.804Z,12.53
2023-04-21T04:39:42.432Z,17.27
2023-04-21T04:44:47.261Z,139.70
2023-04-21T04:49:53.187Z,115.40
2023-04-21T04:54:56.690Z,271.33
2023-04-21T05:05:31.223Z,122.93
2023-04-21T05:10:35.035Z,181.90
2023-04-21T05:15:40.209Z,136.40
2023-04-21T05:20:48.678Z,157.70
2023-04-21T05:26:01.942Z,138.83
2023-04-21T05:31:11.304Z,89.73
2023-04-21T05:36:14.804Z,35.27
2023-04-21T05:41:20.114Z,216.77
2023-04-21T05:46:26.947Z,32.27
2023-04-21T05:51:33.429Z,60.53
2023-04-21T05:56:38.682Z,255.60
2023-04-21T06:07:17.550Z,88.93
2023-04-21T06:12:22.444Z,64.97
2023-04-21T06:17:27.798Z,12.82
2023-04-21T06:22:31.454Z,60.27
2023-04-21T06:27:35.632Z,20.17
2023-04-21T06:32:48.781Z,182.88
2023-04-21T06:37:59.485Z,166.18
2023-04-21T06:43:04.923Z,211.17
2023-04-21T06:48:15.194Z,81.57
2023-04-21T06:53:26.886Z,96.68
2023-04-21T06:58:32.274Z,21.15
2023-04-21T07:03:38.584Z,34.28
2023-04-21T07:08:44.327Z,93.72
2023-04-21T07:13:57.846Z,41.35
2023-04-21T07:19:04.044Z,98.18
2023-04-21T07:24:09.386Z,6.95
2023-04-21T07:29:18.788Z,32.40
2023-04-21T07:34:24.403Z,6.28
2023-04-21T07:39:30.424Z,7.30
2023-04-21T07:44:37.270Z,6.80
2023-04-21T07:49:43.701Z,7.57
2023-04-21T07:54:52.022Z,7.18
2023-04-21T08:05:41.952Z,12.07
2023-04-21T08:10:49.211Z,8.98
2023-04-21T08:15:56.643Z,10.20
2023-04-21T08:21:04.306Z,9.75
2023-04-21T08:26:08.029Z,8.55
2023-04-21T08:31:11.573Z,8.27
2023-04-21T08:36:28.946Z,6.60
2023-04-21T08:41:33.463Z,8.73
2023-04-21T08:46:39.688Z,8.13
2023-04-21T08:51:46.303Z,14.38
2023-04-21T08:56:52.417Z,6.90
2023-04-21T09:02:12.737Z,7.18
2023-04-21T09:07:35.667Z,23.08
2023-04-21T09:13:21.914Z,7.05
2023-04-21T09:18:28.159Z,7.70
2023-04-21T09:23:33.040Z,7.18
2023-04-21T09:28:40.753Z,6.05
2023-04-21T09:33:57.808Z,6.15
2023-04-21T09:44:13.605Z,6.30
2023-04-21T09:49:19.460Z,6.00
2023-04-21T09:54:32.729Z,5.13
2023-04-21T09:59:39.194Z,7.55
2023-04-21T10:04:44.197Z,5.97
2023-04-21T10:09:55.632Z,4.57
2023-04-21T10:14:59.460Z,7.57
2023-04-21T10:20:05.131Z,4.20
2023-04-21T10:25:13.722Z,6.57
2023-04-21T10:30:22.782Z,5.80
2023-04-21T10:35:47.618Z,5.15
2023-04-21T10:40:53.083Z,8.75
2023-04-21T10:45:57.991Z,10.23
2023-04-21T10:51:03.608Z,12.23
2023-04-21T10:56:11.422Z,8.05
2023-04-21T11:01:15.338Z,7.15
2023-04-21T11:06:21.532Z,7.07
2023-04-21T11:11:29.138Z,10.50
2023-04-21T11:16:33.063Z,6.80
2023-04-21T11:21:36.659Z,6.50
2023-04-21T11:26:42.872Z,7.28
2023-04-21T11:31:55.537Z,7.25
2023-04-21T11:37:00.166Z,7.97
2023-04-21T11:42:07.055Z,8.60
2023-04-21T11:47:21.493Z,7.32
2023-04-21T11:52:29.109Z,7.20
2023-04-21T11:57:35.368Z,6.50
2023-04-21T12:02:41.908Z,7.47
2023-04-21T12:07:46.401Z,7.68
2023-04-21T12:12:51.948Z,5.70
2023-04-21T12:17:59.560Z,7.82
2023-04-21T12:23:03.053Z,5.60
2023-04-21T12:28:10.278Z,7.95
2023-04-21T12:33:15.636Z,5.95
2023-04-21T12:38:21.017Z,7.90
2023-04-21T12:43:26.309Z,5.82
2023-04-21T12:48:30.047Z,6.75
2023-04-21T12:53:33.613Z,7.45
2023-04-21T12:58:38.376Z,6.43
2023-04-21T13:03:43.471Z,7.88
2023-04-21T13:08:48.940Z,7.15
2023-04-21T13:13:54.117Z,6.68
2023-04-21T13:18:59.035Z,7.22
2023-04-21T13:24:03.824Z,6.75
2023-04-21T13:29:09.156Z,5.15
2023-04-21T13:34:12.522Z,4.75
2023-04-21T13:39:16.182Z,4.82
2023-04-21T13:44:21.659Z,4.70
2023-04-21T13:49:28.019Z,4.38
2023-04-21T13:54:31.530Z,6.25
2023-04-21T13:59:36.636Z,5.53
2023-04-21T14:04:42.446Z,3.13
2023-04-21T14:09:46.110Z,3.95
2023-04-21T14:14:50.737Z,3.10
2023-04-21T14:19:55.312Z,3.30
2023-04-21T14:24:59.026Z,3.08
2023-04-21T14:30:07.321Z,1.95
2023-04-21T14:35:11.330Z,2.67
2023-04-21T14:40:17.758Z,1.23
2023-04-21T14:45:24.546Z,2.88
2023-04-21T14:50:28.130Z,3.35
2023-04-21T14:55:31.610Z,3.63
2023-04-21T15:00:38.008Z,4.00
2023-04-21T15:05:41.541Z,2.38
2023-04-21T15:10:45.214Z,2.47
2023-04-21T15:15:51.572Z,2.95
2023-04-21T15:20:55.551Z,6.10
2023-04-21T15:25:58.992Z,2.40
2023-04-21T15:31:04.299Z,0.98
2023-04-21T15:36:09.028Z,0.65
2023-04-21T15:41:12.474Z,1.13
2023-04-21T15:46:18.147Z,1.05
2023-04-21T15:51:21.582Z,2.95
2023-04-21T15:56:25.062Z,1.42
2023-04-21T16:01:29.681Z,1.75
2023-04-21T16:06:35.010Z,3.50
2023-04-21T16:11:38.765Z,3.17
2023-04-21T16:16:44.721Z,3.65
2023-04-21T16:21:53.470Z,3.03
2023-04-21T16:26:57.941Z,4.72
2023-04-21T16:32:05.931Z,1.67
2023-04-21T16:37:09.518Z,2.30
2023-04-21T16:42:12.842Z,4.13
2023-04-21T16:47:18.813Z,1.20
2023-04-21T16:52:22.387Z,1.40
2023-04-21T16:57:25.907Z,3.25
2023-04-21T17:02:30.839Z,0.40
2023-04-21T17:07:35.368Z,2.53
2023-04-21T17:12:40.239Z,2.58
2023-04-21T17:17:47.263Z,1.23
2023-04-21T17:22:50.706Z,0.70
2023-04-21T17:27:56.242Z,0.43
2023-04-21T17:33:15.446Z,0.52
2023-04-21T17:38:20.226Z,0.68
2023-04-21T17:43:23.516Z,1.05
2023-04-21T17:48:28.409Z,1.17
2023-04-21T17:53:32.294Z,3.30
2023-04-21T17:58:36.258Z,1.77
2023-04-21T18:03:48.644Z,2.13
2023-04-21T18:08:52.119Z,1.02
2023-04-21T18:13:55.531Z,1.80
2023-04-21T18:19:00.352Z,1.60
2023-04-21T18:24:05.180Z,0.85
2023-04-21T18:29:08.699Z,1.55
2023-04-21T18:34:14.407Z,6.43
2023-04-21T18:39:19.230Z,1.00
2023-04-21T18:44:22.618Z,1.77
2023-04-21T18:49:27.692Z,2.00
2023-04-21T18:54:32.218Z,1.38
2023-04-21T18:59:37.845Z,6.82
2023-04-21T19:04:45.890Z,5.03
2023-04-21T19:09:51.102Z,3.35
2023-04-21T19:14:54.523Z,2.42
2023-04-21T19:19:59.640Z,1.25
2023-04-21T19:25:08.530Z,1.70
2023-04-21T19:30:12.516Z,1.83
2023-04-21T19:35:17.408Z,8.73
2023-04-21T19:40:21.035Z,1.63
2023-04-21T19:45:25.251Z,2.53
2023-04-21T19:50:30.151Z,1.95
2023-04-21T19:55:34.531Z,1.05
2023-04-21T20:00:37.878Z,1.38
2023-04-21T20:05:46.077Z,5.32
2023-04-21T20:10:49.498Z,3.17
2023-04-21T20:15:53.125Z,1.27
2023-04-21T20:20:58.062Z,1.45
2023-04-21T20:26:01.485Z,1.73
2023-04-21T20:31:06.074Z,3.35
2023-04-21T20:36:14.928Z,2.22
2023-04-21T20:41:18.648Z,1.45
2023-04-21T20:46:22.064Z,2.28
2023-04-21T20:51:27.656Z,2.20
2023-04-21T20:56:30.945Z,22.15
2023-04-21T21:01:38.943Z,11.77
2023-04-21T21:06:44.003Z,10.50
2023-04-21T21:11:47.366Z,2.95
2023-04-21T21:16:54.661Z,42.08
2023-04-21T21:21:59.623Z,26.42
2023-04-21T21:27:03.166Z,11.48
2023-04-21T21:32:07.111Z,8.07
2023-04-21T21:37:12.882Z,10.25
2023-04-21T21:42:17.340Z,4.95
2023-04-21T21:47:20.982Z,2.38
2023-04-21T21:52:26.606Z,6.35
2023-04-21T21:57:29.951Z,2.55
2023-04-21T22:02:34.362Z,5.78
2023-04-21T22:07:43.054Z,2.65
2023-04-21T22:12:46.389Z,2.97
2023-04-21T22:17:49.815Z,2.53
2023-04-21T22:22:54.705Z,3.60
2023-04-21T22:27:58.470Z,2.35
2023-04-21T22:33:01.917Z,2.13
2023-04-21T22:38:07.047Z,3.10
2023-04-21T22:43:10.698Z,2.92
2023-04-21T22:48:14.270Z,3.85
2023-04-21T22:53:21.314Z,3.60
2023-04-21T22:58:31.173Z,3.35
2023-04-21T23:03:34.730Z,3.20
2023-04-21T23:08:39.669Z,2.03
2023-04-21T23:13:43.038Z,3.38
2023-04-21T23:18:46.368Z,2.85
2023-04-21T23:23:51.119Z,1.98
2023-04-21T23:28:56.465Z,2.35
2023-04-21T23:34:00.867Z,2.08
2023-04-21T23:39:06.500Z,3.20
2023-04-21T23:44:09.903Z,3.45
2023-04-21T23:49:13.324Z,3.67
2023-04-21T23:54:18.075Z,2.72
2023-04-21T23:59:21.337Z,4.32
